Search for airport 
image banner adimage banner adimage banner ad
image banner ad

KVCB - Nut Tree

Located in Vacaville, United States

ICAO - VCB, IATA -

Data provided by Airmate  

General information

Coordinates: N38°22'42" W121°57'40"
Elevation is 117 feet MSL.
Magnetic variation is 13° East
View others Airports in California

Operational data

Special qualification required
Current time UTC:
Current local time:
Weather
METAR: KVCB 211253Z AUTO 22007KT 10SM CLR 17/08 A2981 RMK AO2 SLP094 T01720078
View NOTAMs / SUP AIP / TFR affecting this airport [VIEW]
Communications frequencies: [VIEW]

Runways:

RWY identifierQFULength (ft)Width (ft)SurfaceLDA (ft)
0234°470075ASPH
20214°470075ASPH

Airport contact information

Address: Vacaville United States

Other aviation service providers

Flight schools

Wings Flight School

Wings Flight School
Rated:
View ratings:
[VIEW]

Icon Aircraft Flight Center

Icon Aircraft Flight Center
info@iconaircraft.com+1(707)564-4000
Rated:
View ratings:
[VIEW]

Satellite view of KVCB